sensor_id;sensor_type;location;lat;lon;timestamp;P1;durP1;ratioP1;P2;durP2;ratioP2
36359;SDS011;22388;52.432;20.662;2022-11-20T00:01:40;54.03;;;27.35;;
36359;SDS011;22388;52.432;20.662;2022-11-20T00:04:07;53.42;;;28.05;;
36359;SDS011;22388;52.432;20.662;2022-11-20T00:06:33;50.35;;;27.38;;
36359;SDS011;22388;52.432;20.662;2022-11-20T00:08:59;53.88;;;27.35;;
36359;SDS011;22388;52.432;20.662;2022-11-20T00:11:26;53.97;;;28.25;;
36359;SDS011;22388;52.432;20.662;2022-11-20T00:13:54;52.38;;;28.45;;
36359;SDS011;22388;52.432;20.662;2022-11-20T00:16:22;56.35;;;29.83;;
36359;SDS011;22388;52.432;20.662;2022-11-20T00:18:49;55.75;;;30.00;;
36359;SDS011;22388;52.432;20.662;2022-11-20T00:21:16;55.15;;;28.35;;
36359;SDS011;22388;52.432;20.662;2022-11-20T00:23:46;52.55;;;28.35;;
36359;SDS011;22388;52.432;20.662;2022-11-20T00:26:13;53.65;;;29.27;;
36359;SDS011;22388;52.432;20.662;2022-11-20T00:28:40;54.97;;;27.90;;
36359;SDS011;22388;52.432;20.662;2022-11-20T00:31:07;52.80;;;28.48;;
36359;SDS011;22388;52.432;20.662;2022-11-20T00:33:38;52.40;;;27.83;;
36359;SDS011;22388;52.432;20.662;2022-11-20T00:36:05;53.70;;;27.80;;
36359;SDS011;22388;52.432;20.662;2022-11-20T00:38:35;56.10;;;28.15;;
36359;SDS011;22388;52.432;20.662;2022-11-20T00:41:02;57.05;;;28.88;;
36359;SDS011;22388;52.432;20.662;2022-11-20T00:43:29;56.03;;;30.55;;
36359;SDS011;22388;52.432;20.662;2022-11-20T00:46:02;52.28;;;28.95;;
36359;SDS011;22388;52.432;20.662;2022-11-20T00:48:29;50.00;;;27.65;;
36359;SDS011;22388;52.432;20.662;2022-11-20T00:50:55;56.00;;;29.98;;
36359;SDS011;22388;52.432;20.662;2022-11-20T00:53:21;59.45;;;30.30;;
36359;SDS011;22388;52.432;20.662;2022-11-20T00:55:57;58.03;;;30.58;;
36359;SDS011;22388;52.432;20.662;2022-11-20T00:58:24;51.83;;;29.90;;
36359;SDS011;22388;52.432;20.662;2022-11-20T01:00:53;56.42;;;30.38;;
36359;SDS011;22388;52.432;20.662;2022-11-20T01:05:50;53.40;;;29.52;;
36359;SDS011;22388;52.432;20.662;2022-11-20T01:08:16;56.35;;;29.80;;
36359;SDS011;22388;52.432;20.662;2022-11-20T01:10:41;60.20;;;30.55;;
36359;SDS011;22388;52.432;20.662;2022-11-20T01:13:07;56.28;;;29.70;;
36359;SDS011;22388;52.432;20.662;2022-11-20T01:15:51;61.33;;;30.08;;
36359;SDS011;22388;52.432;20.662;2022-11-20T01:18:16;58.75;;;30.25;;
36359;SDS011;22388;52.432;20.662;2022-11-20T01:20:42;59.08;;;30.65;;
36359;SDS011;22388;52.432;20.662;2022-11-20T01:23:08;57.53;;;30.80;;
36359;SDS011;22388;52.432;20.662;2022-11-20T01:25:34;59.90;;;32.20;;
36359;SDS011;22388;52.432;20.662;2022-11-20T01:28:00;62.33;;;31.48;;
36359;SDS011;22388;52.432;20.662;2022-11-20T01:30:25;56.10;;;30.83;;
36359;SDS011;22388;52.432;20.662;2022-11-20T01:32:52;61.85;;;31.30;;
36359;SDS011;22388;52.432;20.662;2022-11-20T01:35:18;59.95;;;32.78;;
36359;SDS011;22388;52.432;20.662;2022-11-20T01:37:43;58.42;;;33.08;;
36359;SDS011;22388;52.432;20.662;2022-11-20T01:40:09;64.35;;;32.42;;
36359;SDS011;22388;52.432;20.662;2022-11-20T01:42:35;60.15;;;32.00;;
36359;SDS011;22388;52.432;20.662;2022-11-20T01:48:24;61.78;;;31.38;;
36359;SDS011;22388;52.432;20.662;2022-11-20T01:50:56;60.08;;;32.63;;
36359;SDS011;22388;52.432;20.662;2022-11-20T01:53:24;64.32;;;33.00;;
36359;SDS011;22388;52.432;20.662;2022-11-20T01:55:53;58.92;;;32.05;;
36359;SDS011;22388;52.432;20.662;2022-11-20T01:58:22;65.63;;;32.45;;
36359;SDS011;22388;52.432;20.662;2022-11-20T02:00:48;60.13;;;32.70;;
36359;SDS011;22388;52.432;20.662;2022-11-20T02:03:17;58.40;;;31.17;;
36359;SDS011;22388;52.432;20.662;2022-11-20T02:08:12;67.63;;;33.13;;
36359;SDS011;22388;52.432;20.662;2022-11-20T02:10:38;67.40;;;33.88;;
36359;SDS011;22388;52.432;20.662;2022-11-20T02:13:03;61.97;;;31.75;;
36359;SDS011;22388;52.432;20.662;2022-11-20T02:15:48;63.85;;;32.30;;
36359;SDS011;22388;52.432;20.662;2022-11-20T02:18:14;55.38;;;31.00;;
36359;SDS011;22388;52.432;20.662;2022-11-20T02:20:45;65.53;;;34.67;;
36359;SDS011;22388;52.432;20.662;2022-11-20T02:23:15;58.70;;;31.23;;
36359;SDS011;22388;52.432;20.662;2022-11-20T02:25:45;61.60;;;32.40;;
36359;SDS011;22388;52.432;20.662;2022-11-20T02:28:12;63.95;;;32.67;;
36359;SDS011;22388;52.432;20.662;2022-11-20T02:30:38;60.88;;;32.55;;
36359;SDS011;22388;52.432;20.662;2022-11-20T02:33:03;60.33;;;32.45;;
36359;SDS011;22388;52.432;20.662;2022-11-20T02:37:55;62.78;;;31.98;;
36359;SDS011;22388;52.432;20.662;2022-11-20T02:40:22;60.20;;;31.80;;
36359;SDS011;22388;52.432;20.662;2022-11-20T02:42:51;56.05;;;29.83;;
36359;SDS011;22388;52.432;20.662;2022-11-20T02:45:17;58.13;;;31.60;;
36359;SDS011;22388;52.432;20.662;2022-11-20T02:47:43;59.50;;;31.65;;
36359;SDS011;22388;52.432;20.662;2022-11-20T02:50:09;56.67;;;30.00;;
36359;SDS011;22388;52.432;20.662;2022-11-20T02:52:35;55.53;;;30.65;;
36359;SDS011;22388;52.432;20.662;2022-11-20T02:55:00;53.78;;;30.48;;
36359;SDS011;22388;52.432;20.662;2022-11-20T02:57:26;64.50;;;30.67;;
36359;SDS011;22388;52.432;20.662;2022-11-20T02:59:51;61.65;;;32.00;;
36359;SDS011;22388;52.432;20.662;2022-11-20T03:02:17;58.95;;;31.50;;
36359;SDS011;22388;52.432;20.662;2022-11-20T03:04:43;56.38;;;31.67;;
36359;SDS011;22388;52.432;20.662;2022-11-20T03:07:09;60.80;;;32.40;;
36359;SDS011;22388;52.432;20.662;2022-11-20T03:09:34;55.33;;;29.67;;
36359;SDS011;22388;52.432;20.662;2022-11-20T03:12:00;59.90;;;31.13;;
36359;SDS011;22388;52.432;20.662;2022-11-20T03:14:25;57.90;;;30.15;;
36359;SDS011;22388;52.432;20.662;2022-11-20T03:16:51;56.22;;;31.10;;
36359;SDS011;22388;52.432;20.662;2022-11-20T03:19:17;58.08;;;30.40;;
36359;SDS011;22388;52.432;20.662;2022-11-20T03:21:43;60.60;;;31.25;;
36359;SDS011;22388;52.432;20.662;2022-11-20T03:24:08;57.30;;;31.05;;
36359;SDS011;22388;52.432;20.662;2022-11-20T03:26:34;58.92;;;31.83;;
36359;SDS011;22388;52.432;20.662;2022-11-20T03:29:00;57.03;;;30.98;;
36359;SDS011;22388;52.432;20.662;2022-11-20T03:31:32;53.67;;;30.25;;
36359;SDS011;22388;52.432;20.662;2022-11-20T03:34:02;53.28;;;29.25;;
36359;SDS011;22388;52.432;20.662;2022-11-20T03:36:28;53.60;;;29.80;;
36359;SDS011;22388;52.432;20.662;2022-11-20T03:38:55;58.60;;;30.50;;
36359;SDS011;22388;52.432;20.662;2022-11-20T03:41:25;54.78;;;30.20;;
36359;SDS011;22388;52.432;20.662;2022-11-20T03:43:53;56.55;;;30.00;;
36359;SDS011;22388;52.432;20.662;2022-11-20T03:46:20;53.88;;;29.38;;
36359;SDS011;22388;52.432;20.662;2022-11-20T03:48:46;59.70;;;29.83;;
36359;SDS011;22388;52.432;20.662;2022-11-20T03:51:16;56.53;;;29.27;;
36359;SDS011;22388;52.432;20.662;2022-11-20T03:53:43;58.35;;;29.90;;
36359;SDS011;22388;52.432;20.662;2022-11-20T03:56:10;59.35;;;29.70;;
36359;SDS011;22388;52.432;20.662;2022-11-20T03:58:37;59.55;;;30.33;;
36359;SDS011;22388;52.432;20.662;2022-11-20T04:03:37;58.53;;;29.17;;
36359;SDS011;22388;52.432;20.662;2022-11-20T04:06:11;58.78;;;29.58;;
36359;SDS011;22388;52.432;20.662;2022-11-20T04:08:38;59.00;;;30.40;;
36359;SDS011;22388;52.432;20.662;2022-11-20T04:13:37;58.92;;;31.05;;
36359;SDS011;22388;52.432;20.662;2022-11-20T04:16:02;62.25;;;31.27;;
36359;SDS011;22388;52.432;20.662;2022-11-20T04:18:29;59.42;;;30.10;;
36359;SDS011;22388;52.432;20.662;2022-11-20T04:20:56;55.28;;;29.95;;
36359;SDS011;22388;52.432;20.662;2022-11-20T04:23:22;57.50;;;30.05;;
36359;SDS011;22388;52.432;20.662;2022-11-20T04:25:48;57.55;;;30.27;;
36359;SDS011;22388;52.432;20.662;2022-11-20T04:28:13;60.10;;;30.80;;
36359;SDS011;22388;52.432;20.662;2022-11-20T04:30:39;62.45;;;32.83;;
36359;SDS011;22388;52.432;20.662;2022-11-20T04:33:05;62.60;;;32.17;;
36359;SDS011;22388;52.432;20.662;2022-11-20T04:35:33;62.42;;;32.45;;
36359;SDS011;22388;52.432;20.662;2022-11-20T04:37:59;66.07;;;33.10;;
36359;SDS011;22388;52.432;20.662;2022-11-20T04:40:25;65.30;;;33.92;;
36359;SDS011;22388;52.432;20.662;2022-11-20T04:42:50;64.25;;;33.47;;
36359;SDS011;22388;52.432;20.662;2022-11-20T04:45:16;60.47;;;32.30;;
36359;SDS011;22388;52.432;20.662;2022-11-20T04:47:42;63.78;;;33.33;;
36359;SDS011;22388;52.432;20.662;2022-11-20T04:50:07;63.78;;;31.38;;
36359;SDS011;22388;52.432;20.662;2022-11-20T04:52:33;62.65;;;32.72;;
36359;SDS011;22388;52.432;20.662;2022-11-20T04:54:59;60.70;;;31.80;;
36359;SDS011;22388;52.432;20.662;2022-11-20T04:57:24;61.97;;;32.15;;
36359;SDS011;22388;52.432;20.662;2022-11-20T04:59:50;59.72;;;31.48;;
36359;SDS011;22388;52.432;20.662;2022-11-20T05:02:16;59.75;;;31.95;;
36359;SDS011;22388;52.432;20.662;2022-11-20T05:04:41;59.38;;;30.63;;
36359;SDS011;22388;52.432;20.662;2022-11-20T05:07:07;59.50;;;30.98;;
36359;SDS011;22388;52.432;20.662;2022-11-20T05:09:32;59.35;;;31.70;;
36359;SDS011;22388;52.432;20.662;2022-11-20T05:11:58;64.07;;;32.00;;
36359;SDS011;22388;52.432;20.662;2022-11-20T05:14:24;71.43;;;32.80;;
36359;SDS011;22388;52.432;20.662;2022-11-20T05:16:49;60.05;;;32.28;;
36359;SDS011;22388;52.432;20.662;2022-11-20T05:19:15;57.88;;;31.70;;
36359;SDS011;22388;52.432;20.662;2022-11-20T05:21:40;57.97;;;31.52;;
36359;SDS011;22388;52.432;20.662;2022-11-20T05:24:06;60.72;;;32.78;;
36359;SDS011;22388;52.432;20.662;2022-11-20T05:26:32;64.45;;;32.63;;
36359;SDS011;22388;52.432;20.662;2022-11-20T05:28:57;61.35;;;31.50;;
36359;SDS011;22388;52.432;20.662;2022-11-20T05:31:24;59.10;;;31.92;;
36359;SDS011;22388;52.432;20.662;2022-11-20T05:33:49;59.42;;;31.48;;
36359;SDS011;22388;52.432;20.662;2022-11-20T05:36:16;59.70;;;32.17;;
36359;SDS011;22388;52.432;20.662;2022-11-20T05:38:42;59.30;;;32.08;;
36359;SDS011;22388;52.432;20.662;2022-11-20T05:41:12;55.88;;;30.40;;
36359;SDS011;22388;52.432;20.662;2022-11-20T05:43:40;61.27;;;32.37;;
36359;SDS011;22388;52.432;20.662;2022-11-20T05:46:07;65.10;;;33.03;;
36359;SDS011;22388;52.432;20.662;2022-11-20T05:48:34;64.03;;;30.55;;
36359;SDS011;22388;52.432;20.662;2022-11-20T05:51:01;61.58;;;32.13;;
36359;SDS011;22388;52.432;20.662;2022-11-20T05:53:27;60.60;;;31.60;;
36359;SDS011;22388;52.432;20.662;2022-11-20T05:56:12;58.30;;;31.38;;
36359;SDS011;22388;52.432;20.662;2022-11-20T05:58:40;61.00;;;30.48;;
36359;SDS011;22388;52.432;20.662;2022-11-20T06:01:07;63.70;;;31.45;;
36359;SDS011;22388;52.432;20.662;2022-11-20T06:03:33;64.47;;;32.35;;
36359;SDS011;22388;52.432;20.662;2022-11-20T06:05:59;63.00;;;30.67;;
36359;SDS011;22388;52.432;20.662;2022-11-20T06:08:25;63.72;;;33.20;;
36359;SDS011;22388;52.432;20.662;2022-11-20T06:10:51;62.08;;;32.35;;
36359;SDS011;22388;52.432;20.662;2022-11-20T06:13:16;62.38;;;34.05;;
36359;SDS011;22388;52.432;20.662;2022-11-20T06:15:47;64.25;;;33.28;;
36359;SDS011;22388;52.432;20.662;2022-11-20T06:18:14;65.55;;;32.38;;
36359;SDS011;22388;52.432;20.662;2022-11-20T06:20:39;56.58;;;31.25;;
36359;SDS011;22388;52.432;20.662;2022-11-20T06:23:05;59.03;;;30.88;;
36359;SDS011;22388;52.432;20.662;2022-11-20T06:25:30;65.10;;;32.92;;
36359;SDS011;22388;52.432;20.662;2022-11-20T06:27:56;68.53;;;33.45;;
36359;SDS011;22388;52.432;20.662;2022-11-20T06:30:21;63.95;;;32.53;;
36359;SDS011;22388;52.432;20.662;2022-11-20T06:32:47;63.10;;;32.30;;
36359;SDS011;22388;52.432;20.662;2022-11-20T06:35:13;68.88;;;33.22;;
36359;SDS011;22388;52.432;20.662;2022-11-20T06:37:38;62.15;;;32.35;;
36359;SDS011;22388;52.432;20.662;2022-11-20T06:40:04;63.20;;;32.25;;
36359;SDS011;22388;52.432;20.662;2022-11-20T06:42:30;65.00;;;32.78;;
36359;SDS011;22388;52.432;20.662;2022-11-20T06:44:56;65.18;;;33.13;;
36359;SDS011;22388;52.432;20.662;2022-11-20T06:47:22;65.85;;;34.05;;
36359;SDS011;22388;52.432;20.662;2022-11-20T06:49:47;62.47;;;32.70;;
36359;SDS011;22388;52.432;20.662;2022-11-20T06:52:13;65.82;;;34.28;;
36359;SDS011;22388;52.432;20.662;2022-11-20T06:54:39;67.72;;;33.30;;
36359;SDS011;22388;52.432;20.662;2022-11-20T06:57:04;58.80;;;32.28;;
36359;SDS011;22388;52.432;20.662;2022-11-20T06:59:30;74.65;;;34.40;;
36359;SDS011;22388;52.432;20.662;2022-11-20T07:01:55;69.13;;;34.35;;
36359;SDS011;22388;52.432;20.662;2022-11-20T07:04:21;65.80;;;33.60;;
36359;SDS011;22388;52.432;20.662;2022-11-20T07:06:47;69.32;;;33.58;;
36359;SDS011;22388;52.432;20.662;2022-11-20T07:09:13;62.28;;;34.95;;
36359;SDS011;22388;52.432;20.662;2022-11-20T07:11:38;69.28;;;33.45;;
36359;SDS011;22388;52.432;20.662;2022-11-20T07:14:04;67.30;;;33.42;;
36359;SDS011;22388;52.432;20.662;2022-11-20T07:16:30;68.78;;;34.55;;
36359;SDS011;22388;52.432;20.662;2022-11-20T07:18:56;64.15;;;33.60;;
36359;SDS011;22388;52.432;20.662;2022-11-20T07:21:21;66.65;;;35.83;;
36359;SDS011;22388;52.432;20.662;2022-11-20T07:23:47;65.53;;;34.60;;
36359;SDS011;22388;52.432;20.662;2022-11-20T07:26:12;65.85;;;33.67;;
36359;SDS011;22388;52.432;20.662;2022-11-20T07:28:38;69.30;;;34.15;;
36359;SDS011;22388;52.432;20.662;2022-11-20T07:31:04;67.43;;;35.58;;
36359;SDS011;22388;52.432;20.662;2022-11-20T07:33:31;67.90;;;33.35;;
36359;SDS011;22388;52.432;20.662;2022-11-20T07:36:00;68.28;;;35.45;;
36359;SDS011;22388;52.432;20.662;2022-11-20T07:38:26;59.75;;;32.53;;
36359;SDS011;22388;52.432;20.662;2022-11-20T07:40:56;65.55;;;34.38;;
36359;SDS011;22388;52.432;20.662;2022-11-20T07:43:22;69.55;;;33.20;;
36359;SDS011;22388;52.432;20.662;2022-11-20T07:45:49;71.28;;;34.80;;
36359;SDS011;22388;52.432;20.662;2022-11-20T07:48:14;69.45;;;35.17;;
36359;SDS011;22388;52.432;20.662;2022-11-20T07:50:40;64.35;;;34.78;;
36359;SDS011;22388;52.432;20.662;2022-11-20T07:53:05;72.60;;;34.05;;
36359;SDS011;22388;52.432;20.662;2022-11-20T07:55:31;66.28;;;33.58;;
36359;SDS011;22388;52.432;20.662;2022-11-20T07:57:57;66.22;;;33.95;;
36359;SDS011;22388;52.432;20.662;2022-11-20T08:00:23;68.72;;;34.05;;
36359;SDS011;22388;52.432;20.662;2022-11-20T08:02:50;68.97;;;34.92;;
36359;SDS011;22388;52.432;20.662;2022-11-20T08:05:15;73.32;;;34.75;;
36359;SDS011;22388;52.432;20.662;2022-11-20T08:07:42;69.15;;;34.90;;
36359;SDS011;22388;52.432;20.662;2022-11-20T08:10:09;70.78;;;35.85;;
36359;SDS011;22388;52.432;20.662;2022-11-20T08:12:35;64.25;;;34.50;;
36359;SDS011;22388;52.432;20.662;2022-11-20T08:15:20;69.75;;;34.95;;
36359;SDS011;22388;52.432;20.662;2022-11-20T08:17:45;69.45;;;35.45;;
36359;SDS011;22388;52.432;20.662;2022-11-20T08:20:11;62.63;;;33.60;;
36359;SDS011;22388;52.432;20.662;2022-11-20T08:22:36;71.30;;;35.58;;
36359;SDS011;22388;52.432;20.662;2022-11-20T08:25:02;65.93;;;34.55;;
36359;SDS011;22388;52.432;20.662;2022-11-20T08:27:28;62.03;;;34.15;;
36359;SDS011;22388;52.432;20.662;2022-11-20T08:29:54;70.25;;;35.60;;
36359;SDS011;22388;52.432;20.662;2022-11-20T08:32:19;64.22;;;33.83;;
36359;SDS011;22388;52.432;20.662;2022-11-20T08:34:45;62.95;;;33.72;;
36359;SDS011;22388;52.432;20.662;2022-11-20T08:37:11;68.05;;;34.42;;
36359;SDS011;22388;52.432;20.662;2022-11-20T08:39:36;60.20;;;33.67;;
36359;SDS011;22388;52.432;20.662;2022-11-20T08:42:06;63.70;;;34.88;;
36359;SDS011;22388;52.432;20.662;2022-11-20T08:44:32;67.35;;;34.97;;
36359;SDS011;22388;52.432;20.662;2022-11-20T08:46:57;69.28;;;35.10;;
36359;SDS011;22388;52.432;20.662;2022-11-20T08:49:23;65.07;;;34.60;;
36359;SDS011;22388;52.432;20.662;2022-11-20T08:51:48;62.92;;;33.10;;
36359;SDS011;22388;52.432;20.662;2022-11-20T08:54:17;65.28;;;32.58;;
36359;SDS011;22388;52.432;20.662;2022-11-20T08:56:45;69.07;;;33.65;;
36359;SDS011;22388;52.432;20.662;2022-11-20T08:59:10;62.17;;;33.67;;
36359;SDS011;22388;52.432;20.662;2022-11-20T09:01:36;62.47;;;33.67;;
36359;SDS011;22388;52.432;20.662;2022-11-20T09:04:01;62.58;;;34.60;;
36359;SDS011;22388;52.432;20.662;2022-11-20T09:06:28;65.35;;;34.20;;
36359;SDS011;22388;52.432;20.662;2022-11-20T09:08:54;59.50;;;33.50;;
36359;SDS011;22388;52.432;20.662;2022-11-20T09:11:20;62.42;;;31.60;;
36359;SDS011;22388;52.432;20.662;2022-11-20T09:13:46;67.40;;;35.15;;
36359;SDS011;22388;52.432;20.662;2022-11-20T09:16:11;62.60;;;31.70;;
36359;SDS011;22388;52.432;20.662;2022-11-20T09:18:37;66.78;;;33.15;;
36359;SDS011;22388;52.432;20.662;2022-11-20T09:21:07;69.75;;;35.08;;
36359;SDS011;22388;52.432;20.662;2022-11-20T09:23:36;63.05;;;33.58;;
36359;SDS011;22388;52.432;20.662;2022-11-20T09:26:03;69.50;;;35.28;;
36359;SDS011;22388;52.432;20.662;2022-11-20T09:28:30;63.88;;;33.83;;
36359;SDS011;22388;52.432;20.662;2022-11-20T09:30:56;59.03;;;32.35;;
36359;SDS011;22388;52.432;20.662;2022-11-20T09:33:21;61.85;;;33.78;;
36359;SDS011;22388;52.432;20.662;2022-11-20T09:35:46;59.55;;;33.67;;
36359;SDS011;22388;52.432;20.662;2022-11-20T09:38:12;62.00;;;32.08;;
36359;SDS011;22388;52.432;20.662;2022-11-20T09:40:40;66.45;;;35.15;;
36359;SDS011;22388;52.432;20.662;2022-11-20T09:46:16;64.70;;;34.75;;
36359;SDS011;22388;52.432;20.662;2022-11-20T09:48:53;65.88;;;32.75;;
36359;SDS011;22388;52.432;20.662;2022-11-20T09:56:42;61.88;;;33.03;;
36359;SDS011;22388;52.432;20.662;2022-11-20T09:59:16;68.05;;;33.40;;
36359;SDS011;22388;52.432;20.662;2022-11-20T10:02:00;64.55;;;32.90;;
36359;SDS011;22388;52.432;20.662;2022-11-20T10:04:27;64.05;;;33.33;;
36359;SDS011;22388;52.432;20.662;2022-11-20T10:07:08;69.60;;;35.42;;
36359;SDS011;22388;52.432;20.662;2022-11-20T10:09:40;110.43;;;54.35;;
36359;SDS011;22388;52.432;20.662;2022-11-20T10:12:13;73.35;;;38.88;;
36359;SDS011;22388;52.432;20.662;2022-11-20T10:25:38;66.68;;;34.78;;
36359;SDS011;22388;52.432;20.662;2022-11-20T10:28:21;58.15;;;32.15;;
36359;SDS011;22388;52.432;20.662;2022-11-20T10:30:54;60.47;;;32.95;;
36359;SDS011;22388;52.432;20.662;2022-11-20T10:33:22;61.97;;;31.38;;
36359;SDS011;22388;52.432;20.662;2022-11-20T10:36:04;59.75;;;35.10;;
36359;SDS011;22388;52.432;20.662;2022-11-20T10:38:33;65.07;;;35.72;;
36359;SDS011;22388;52.432;20.662;2022-11-20T10:41:02;58.38;;;32.20;;
36359;SDS011;22388;52.432;20.662;2022-11-20T10:43:47;58.35;;;31.85;;
36359;SDS011;22388;52.432;20.662;2022-11-20T10:46:21;53.67;;;29.90;;
36359;SDS011;22388;52.432;20.662;2022-11-20T10:48:48;56.40;;;31.13;;
36359;SDS011;22388;52.432;20.662;2022-11-20T10:57:20;64.22;;;32.22;;
36359;SDS011;22388;52.432;20.662;2022-11-20T11:00:11;60.15;;;31.98;;
36359;SDS011;22388;52.432;20.662;2022-11-20T11:02:45;55.22;;;30.83;;
36359;SDS011;22388;52.432;20.662;2022-11-20T11:05:27;54.13;;;30.92;;
36359;SDS011;22388;52.432;20.662;2022-11-20T11:07:55;52.30;;;29.75;;
36359;SDS011;22388;52.432;20.662;2022-11-20T11:10:23;55.40;;;30.98;;
36359;SDS011;22388;52.432;20.662;2022-11-20T11:12:51;58.10;;;28.90;;
36359;SDS011;22388;52.432;20.662;2022-11-20T11:18:24;58.17;;;31.08;;
36359;SDS011;22388;52.432;20.662;2022-11-20T11:20:57;55.85;;;31.15;;
36359;SDS011;22388;52.432;20.662;2022-11-20T11:23:29;54.47;;;30.55;;
36359;SDS011;22388;52.432;20.662;2022-11-20T11:25:56;51.10;;;29.50;;
36359;SDS011;22388;52.432;20.662;2022-11-20T11:28:26;57.72;;;30.77;;
36359;SDS011;22388;52.432;20.662;2022-11-20T11:30:53;59.75;;;33.13;;
36359;SDS011;22388;52.432;20.662;2022-11-20T11:33:23;52.95;;;30.58;;
36359;SDS011;22388;52.432;20.662;2022-11-20T11:35:53;53.88;;;29.35;;
36359;SDS011;22388;52.432;20.662;2022-11-20T11:38:36;54.67;;;30.58;;
36359;SDS011;22388;52.432;20.662;2022-11-20T11:41:07;57.33;;;29.35;;
36359;SDS011;22388;52.432;20.662;2022-11-20T11:43:53;55.78;;;30.10;;
36359;SDS011;22388;52.432;20.662;2022-11-20T11:46:39;56.92;;;29.13;;
36359;SDS011;22388;52.432;20.662;2022-11-20T11:51:36;56.25;;;29.80;;
36359;SDS011;22388;52.432;20.662;2022-11-20T11:54:12;54.90;;;28.48;;
36359;SDS011;22388;52.432;20.662;2022-11-20T11:56:48;55.75;;;30.33;;
36359;SDS011;22388;52.432;20.662;2022-11-20T11:59:16;54.08;;;29.08;;
36359;SDS011;22388;52.432;20.662;2022-11-20T12:01:49;63.60;;;31.33;;
36359;SDS011;22388;52.432;20.662;2022-11-20T12:04:24;59.67;;;31.75;;
36359;SDS011;22388;52.432;20.662;2022-11-20T12:10:01;63.33;;;33.55;;
36359;SDS011;22388;52.432;20.662;2022-11-20T12:12:30;61.25;;;35.50;;
36359;SDS011;22388;52.432;20.662;2022-11-20T12:15:00;63.65;;;34.90;;
36359;SDS011;22388;52.432;20.662;2022-11-20T12:17:26;57.20;;;33.13;;
36359;SDS011;22388;52.432;20.662;2022-11-20T12:19:51;63.05;;;33.40;;
36359;SDS011;22388;52.432;20.662;2022-11-20T12:30:11;73.70;;;38.28;;
36359;SDS011;22388;52.432;20.662;2022-11-20T12:33:01;69.97;;;38.90;;
36359;SDS011;22388;52.432;20.662;2022-11-20T12:50:39;63.10;;;32.58;;
36359;SDS011;22388;52.432;20.662;2022-11-20T13:04:46;60.30;;;31.00;;
36359;SDS011;22388;52.432;20.662;2022-11-20T13:07:21;60.15;;;31.83;;
36359;SDS011;22388;52.432;20.662;2022-11-20T13:09:48;62.88;;;31.70;;
36359;SDS011;22388;52.432;20.662;2022-11-20T13:12:25;57.13;;;31.90;;
36359;SDS011;22388;52.432;20.662;2022-11-20T13:15:05;72.15;;;38.90;;
36359;SDS011;22388;52.432;20.662;2022-11-20T13:18:02;67.75;;;36.35;;
36359;SDS011;22388;52.432;20.662;2022-11-20T13:20:27;57.28;;;32.75;;
36359;SDS011;22388;52.432;20.662;2022-11-20T13:22:54;60.28;;;31.88;;
36359;SDS011;22388;52.432;20.662;2022-11-20T13:25:30;60.28;;;33.80;;
36359;SDS011;22388;52.432;20.662;2022-11-20T13:28:01;57.03;;;31.42;;
36359;SDS011;22388;52.432;20.662;2022-11-20T13:30:29;57.78;;;32.70;;
36359;SDS011;22388;52.432;20.662;2022-11-20T13:32:56;55.25;;;31.77;;
36359;SDS011;22388;52.432;20.662;2022-11-20T13:35:30;62.22;;;32.78;;
36359;SDS011;22388;52.432;20.662;2022-11-20T13:38:14;56.78;;;33.10;;
36359;SDS011;22388;52.432;20.662;2022-11-20T13:40:53;59.05;;;32.58;;
36359;SDS011;22388;52.432;20.662;2022-11-20T13:43:42;61.35;;;31.77;;
36359;SDS011;22388;52.432;20.662;2022-11-20T13:46:09;54.75;;;30.50;;
36359;SDS011;22388;52.432;20.662;2022-11-20T13:48:39;55.13;;;30.80;;
36359;SDS011;22388;52.432;20.662;2022-11-20T13:57:03;59.90;;;32.22;;
36359;SDS011;22388;52.432;20.662;2022-11-20T13:59:56;60.13;;;31.00;;
36359;SDS011;22388;52.432;20.662;2022-11-20T14:02:25;59.07;;;30.20;;
36359;SDS011;22388;52.432;20.662;2022-11-20T14:08:17;51.77;;;29.40;;
36359;SDS011;22388;52.432;20.662;2022-11-20T14:10:49;63.25;;;33.50;;
36359;SDS011;22388;52.432;20.662;2022-11-20T14:13:17;55.58;;;30.38;;
36359;SDS011;22388;52.432;20.662;2022-11-20T14:15:44;59.00;;;30.00;;
36359;SDS011;22388;52.432;20.662;2022-11-20T14:18:19;52.90;;;29.50;;
36359;SDS011;22388;52.432;20.662;2022-11-20T14:20:47;52.85;;;30.25;;
36359;SDS011;22388;52.432;20.662;2022-11-20T14:23:12;51.60;;;30.13;;
36359;SDS011;22388;52.432;20.662;2022-11-20T14:25:49;52.92;;;29.10;;
36359;SDS011;22388;52.432;20.662;2022-11-20T14:28:20;49.88;;;28.92;;
36359;SDS011;22388;52.432;20.662;2022-11-20T14:30:51;56.53;;;31.20;;
36359;SDS011;22388;52.432;20.662;2022-11-20T14:33:17;59.70;;;32.30;;
36359;SDS011;22388;52.432;20.662;2022-11-20T14:35:47;55.88;;;29.75;;
36359;SDS011;22388;52.432;20.662;2022-11-20T14:38:14;51.15;;;28.58;;
36359;SDS011;22388;52.432;20.662;2022-11-20T14:40:42;53.40;;;29.13;;
36359;SDS011;22388;52.432;20.662;2022-11-20T14:43:19;51.90;;;29.50;;
36359;SDS011;22388;52.432;20.662;2022-11-20T15:01:12;53.38;;;32.80;;
36359;SDS011;22388;52.432;20.662;2022-11-20T15:03:39;54.05;;;33.08;;
36359;SDS011;22388;52.432;20.662;2022-11-20T15:06:05;58.00;;;33.00;;
36359;SDS011;22388;52.432;20.662;2022-11-20T15:08:33;58.88;;;32.90;;
36359;SDS011;22388;52.432;20.662;2022-11-20T15:10:59;56.47;;;31.92;;
36359;SDS011;22388;52.432;20.662;2022-11-20T15:13:36;64.38;;;36.55;;
36359;SDS011;22388;52.432;20.662;2022-11-20T15:16:02;56.03;;;32.55;;
36359;SDS011;22388;52.432;20.662;2022-11-20T15:21:00;58.47;;;31.77;;
36359;SDS011;22388;52.432;20.662;2022-11-20T15:23:27;58.20;;;31.33;;
36359;SDS011;22388;52.432;20.662;2022-11-20T15:25:54;62.30;;;33.83;;
36359;SDS011;22388;52.432;20.662;2022-11-20T15:28:21;60.55;;;32.90;;
36359;SDS011;22388;52.432;20.662;2022-11-20T15:30:51;57.95;;;31.48;;
36359;SDS011;22388;52.432;20.662;2022-11-20T15:33:17;56.03;;;31.23;;
36359;SDS011;22388;52.432;20.662;2022-11-20T15:35:43;53.65;;;29.77;;
36359;SDS011;22388;52.432;20.662;2022-11-20T15:38:09;55.88;;;30.90;;
36359;SDS011;22388;52.432;20.662;2022-11-20T15:40:35;55.80;;;30.45;;
36359;SDS011;22388;52.432;20.662;2022-11-20T15:43:01;58.08;;;31.83;;
36359;SDS011;22388;52.432;20.662;2022-11-20T15:45:32;58.35;;;31.05;;
36359;SDS011;22388;52.432;20.662;2022-11-20T15:47:59;57.70;;;32.00;;
36359;SDS011;22388;52.432;20.662;2022-11-20T15:50:27;59.97;;;32.22;;
36359;SDS011;22388;52.432;20.662;2022-11-20T15:52:56;54.90;;;31.23;;
36359;SDS011;22388;52.432;20.662;2022-11-20T15:55:22;59.05;;;32.35;;
36359;SDS011;22388;52.432;20.662;2022-11-20T15:57:47;55.90;;;31.60;;
36359;SDS011;22388;52.432;20.662;2022-11-20T16:00:13;58.53;;;31.92;;
36359;SDS011;22388;52.432;20.662;2022-11-20T16:02:39;62.90;;;32.25;;
36359;SDS011;22388;52.432;20.662;2022-11-20T16:05:08;60.40;;;33.42;;
36359;SDS011;22388;52.432;20.662;2022-11-20T16:07:36;55.45;;;32.67;;